sensor_id;sensor_type;location;lat;lon;timestamp;P1;durP1;ratioP1;P2;durP2;ratioP2
5981;SDS011;3018;48.730;9.336;2023-03-13T00:02:14;10.65;;;5.00;;
5981;SDS011;3018;48.730;9.336;2023-03-13T00:04:40;14.05;;;5.07;;
5981;SDS011;3018;48.730;9.336;2023-03-13T00:07:06;12.63;;;5.65;;
5981;SDS011;3018;48.730;9.336;2023-03-13T00:09:34;9.63;;;5.35;;
5981;SDS011;3018;48.730;9.336;2023-03-13T00:12:00;12.57;;;5.40;;
5981;SDS011;3018;48.730;9.336;2023-03-13T00:14:26;12.52;;;5.28;;
5981;SDS011;3018;48.730;9.336;2023-03-13T00:16:52;14.23;;;5.35;;
5981;SDS011;3018;48.730;9.336;2023-03-13T00:19:20;10.18;;;4.35;;
5981;SDS011;3018;48.730;9.336;2023-03-13T00:21:46;8.20;;;3.92;;
5981;SDS011;3018;48.730;9.336;2023-03-13T00:24:12;8.90;;;4.50;;
5981;SDS011;3018;48.730;9.336;2023-03-13T00:26:39;8.85;;;3.75;;
5981;SDS011;3018;48.730;9.336;2023-03-13T00:29:05;9.63;;;4.15;;
5981;SDS011;3018;48.730;9.336;2023-03-13T00:31:31;8.27;;;4.00;;
5981;SDS011;3018;48.730;9.336;2023-03-13T00:33:58;10.05;;;4.68;;
5981;SDS011;3018;48.730;9.336;2023-03-13T00:36:26;13.32;;;4.63;;
5981;SDS011;3018;48.730;9.336;2023-03-13T00:38:54;12.73;;;5.00;;
5981;SDS011;3018;48.730;9.336;2023-03-13T00:41:21;13.43;;;4.72;;
5981;SDS011;3018;48.730;9.336;2023-03-13T00:43:48;8.88;;;4.07;;
5981;SDS011;3018;48.730;9.336;2023-03-13T00:46:15;10.70;;;4.28;;
5981;SDS011;3018;48.730;9.336;2023-03-13T00:48:41;10.90;;;4.50;;
5981;SDS011;3018;48.730;9.336;2023-03-13T00:51:08;9.40;;;4.13;;
5981;SDS011;3018;48.730;9.336;2023-03-13T00:53:36;10.65;;;4.60;;
5981;SDS011;3018;48.730;9.336;2023-03-13T00:56:02;11.15;;;5.40;;
5981;SDS011;3018;48.730;9.336;2023-03-13T00:58:30;12.23;;;4.43;;
5981;SDS011;3018;48.730;9.336;2023-03-13T01:00:56;7.38;;;4.40;;
5981;SDS011;3018;48.730;9.336;2023-03-13T01:03:23;12.80;;;4.80;;
5981;SDS011;3018;48.730;9.336;2023-03-13T01:05:56;9.95;;;4.68;;
5981;SDS011;3018;48.730;9.336;2023-03-13T01:08:22;13.35;;;5.10;;
5981;SDS011;3018;48.730;9.336;2023-03-13T01:10:49;15.25;;;5.05;;
5981;SDS011;3018;48.730;9.336;2023-03-13T01:13:16;11.95;;;5.18;;
5981;SDS011;3018;48.730;9.336;2023-03-13T01:15:42;9.82;;;4.70;;
5981;SDS011;3018;48.730;9.336;2023-03-13T01:18:08;14.55;;;4.85;;
5981;SDS011;3018;48.730;9.336;2023-03-13T01:20:34;10.73;;;4.32;;
5981;SDS011;3018;48.730;9.336;2023-03-13T01:23:01;12.38;;;4.65;;
5981;SDS011;3018;48.730;9.336;2023-03-13T01:25:27;10.75;;;4.20;;
5981;SDS011;3018;48.730;9.336;2023-03-13T01:27:55;12.38;;;3.95;;
5981;SDS011;3018;48.730;9.336;2023-03-13T01:30:21;12.75;;;4.15;;
5981;SDS011;3018;48.730;9.336;2023-03-13T01:32:47;10.50;;;4.22;;
5981;SDS011;3018;48.730;9.336;2023-03-13T01:35:13;9.23;;;4.35;;
5981;SDS011;3018;48.730;9.336;2023-03-13T01:37:40;10.20;;;4.63;;
5981;SDS011;3018;48.730;9.336;2023-03-13T01:40:06;11.77;;;4.30;;
5981;SDS011;3018;48.730;9.336;2023-03-13T01:42:47;13.93;;;4.57;;
5981;SDS011;3018;48.730;9.336;2023-03-13T01:47:56;12.32;;;4.15;;
5981;SDS011;3018;48.730;9.336;2023-03-13T01:50:22;12.52;;;4.30;;
5981;SDS011;3018;48.730;9.336;2023-03-13T01:52:48;10.95;;;4.97;;
5981;SDS011;3018;48.730;9.336;2023-03-13T01:55:15;11.48;;;4.40;;
5981;SDS011;3018;48.730;9.336;2023-03-13T01:57:43;11.25;;;4.70;;
5981;SDS011;3018;48.730;9.336;2023-03-13T02:00:11;10.38;;;4.10;;
5981;SDS011;3018;48.730;9.336;2023-03-13T02:02:41;10.00;;;4.35;;
5981;SDS011;3018;48.730;9.336;2023-03-13T02:05:10;10.40;;;4.68;;
5981;SDS011;3018;48.730;9.336;2023-03-13T02:07:38;9.95;;;4.38;;
5981;SDS011;3018;48.730;9.336;2023-03-13T02:10:05;8.88;;;4.28;;
5981;SDS011;3018;48.730;9.336;2023-03-13T02:12:33;10.63;;;4.43;;
5981;SDS011;3018;48.730;9.336;2023-03-13T02:15:01;11.85;;;4.47;;
5981;SDS011;3018;48.730;9.336;2023-03-13T02:17:27;12.13;;;4.68;;
5981;SDS011;3018;48.730;9.336;2023-03-13T02:19:54;9.75;;;4.07;;
5981;SDS011;3018;48.730;9.336;2023-03-13T02:22:23;9.52;;;3.88;;
5981;SDS011;3018;48.730;9.336;2023-03-13T02:24:50;10.68;;;4.35;;
5981;SDS011;3018;48.730;9.336;2023-03-13T02:27:21;7.30;;;3.80;;
5981;SDS011;3018;48.730;9.336;2023-03-13T02:29:47;12.32;;;4.25;;
5981;SDS011;3018;48.730;9.336;2023-03-13T02:32:14;12.13;;;4.47;;
5981;SDS011;3018;48.730;9.336;2023-03-13T02:34:40;9.18;;;4.28;;
5981;SDS011;3018;48.730;9.336;2023-03-13T02:37:08;10.38;;;4.50;;
5981;SDS011;3018;48.730;9.336;2023-03-13T02:39:37;11.55;;;4.65;;
5981;SDS011;3018;48.730;9.336;2023-03-13T02:42:04;11.07;;;4.38;;
5981;SDS011;3018;48.730;9.336;2023-03-13T02:44:34;7.55;;;4.50;;
5981;SDS011;3018;48.730;9.336;2023-03-13T02:47:02;8.18;;;4.28;;
5981;SDS011;3018;48.730;9.336;2023-03-13T02:49:28;13.35;;;5.05;;
5981;SDS011;3018;48.730;9.336;2023-03-13T02:51:55;10.73;;;4.18;;
5981;SDS011;3018;48.730;9.336;2023-03-13T02:54:23;10.60;;;4.03;;
5981;SDS011;3018;48.730;9.336;2023-03-13T02:56:55;8.15;;;4.50;;
5981;SDS011;3018;48.730;9.336;2023-03-13T02:59:22;8.00;;;4.22;;
5981;SDS011;3018;48.730;9.336;2023-03-13T03:01:50;7.63;;;4.20;;
5981;SDS011;3018;48.730;9.336;2023-03-13T03:04:18;8.13;;;4.15;;
5981;SDS011;3018;48.730;9.336;2023-03-13T03:06:44;11.90;;;4.68;;
5981;SDS011;3018;48.730;9.336;2023-03-13T03:09:11;12.95;;;4.57;;
5981;SDS011;3018;48.730;9.336;2023-03-13T03:11:37;9.90;;;4.10;;
5981;SDS011;3018;48.730;9.336;2023-03-13T03:14:03;8.65;;;4.07;;
5981;SDS011;3018;48.730;9.336;2023-03-13T03:16:30;10.52;;;4.47;;
5981;SDS011;3018;48.730;9.336;2023-03-13T03:18:57;7.60;;;4.03;;
5981;SDS011;3018;48.730;9.336;2023-03-13T03:21:24;10.35;;;4.03;;
5981;SDS011;3018;48.730;9.336;2023-03-13T03:23:50;7.57;;;3.63;;
5981;SDS011;3018;48.730;9.336;2023-03-13T03:26:16;13.07;;;4.10;;
5981;SDS011;3018;48.730;9.336;2023-03-13T03:28:43;8.02;;;3.88;;
5981;SDS011;3018;48.730;9.336;2023-03-13T03:31:09;7.65;;;4.10;;
5981;SDS011;3018;48.730;9.336;2023-03-13T03:33:36;13.77;;;4.22;;
5981;SDS011;3018;48.730;9.336;2023-03-13T03:36:05;8.30;;;3.92;;
5981;SDS011;3018;48.730;9.336;2023-03-13T03:38:31;11.13;;;3.47;;
5981;SDS011;3018;48.730;9.336;2023-03-13T03:40:58;10.15;;;4.03;;
5981;SDS011;3018;48.730;9.336;2023-03-13T03:43:24;9.95;;;4.07;;
5981;SDS011;3018;48.730;9.336;2023-03-13T03:45:50;11.20;;;4.28;;
5981;SDS011;3018;48.730;9.336;2023-03-13T03:48:17;13.23;;;4.50;;
5981;SDS011;3018;48.730;9.336;2023-03-13T03:50:43;11.57;;;4.60;;
5981;SDS011;3018;48.730;9.336;2023-03-13T03:53:10;8.45;;;5.03;;
5981;SDS011;3018;48.730;9.336;2023-03-13T03:55:37;10.75;;;5.00;;
5981;SDS011;3018;48.730;9.336;2023-03-13T03:58:04;10.02;;;4.65;;
5981;SDS011;3018;48.730;9.336;2023-03-13T04:00:30;10.48;;;4.85;;
5981;SDS011;3018;48.730;9.336;2023-03-13T04:02:56;13.35;;;4.97;;
5981;SDS011;3018;48.730;9.336;2023-03-13T04:05:22;13.68;;;4.90;;
5981;SDS011;3018;48.730;9.336;2023-03-13T04:07:49;10.25;;;4.80;;
5981;SDS011;3018;48.730;9.336;2023-03-13T04:10:17;11.45;;;5.10;;
5981;SDS011;3018;48.730;9.336;2023-03-13T04:12:43;11.43;;;4.70;;
5981;SDS011;3018;48.730;9.336;2023-03-13T04:15:09;10.38;;;3.97;;
5981;SDS011;3018;48.730;9.336;2023-03-13T04:17:36;15.95;;;5.07;;
5981;SDS011;3018;48.730;9.336;2023-03-13T04:20:02;9.40;;;4.25;;
5981;SDS011;3018;48.730;9.336;2023-03-13T04:22:30;9.90;;;4.88;;
5981;SDS011;3018;48.730;9.336;2023-03-13T04:24:56;7.65;;;3.80;;
5981;SDS011;3018;48.730;9.336;2023-03-13T04:27:24;10.30;;;4.68;;
5981;SDS011;3018;48.730;9.336;2023-03-13T04:29:50;10.85;;;4.70;;
5981;SDS011;3018;48.730;9.336;2023-03-13T04:32:16;11.82;;;4.63;;
5981;SDS011;3018;48.730;9.336;2023-03-13T04:34:43;10.52;;;4.07;;
5981;SDS011;3018;48.730;9.336;2023-03-13T04:37:09;11.60;;;4.07;;
5981;SDS011;3018;48.730;9.336;2023-03-13T04:39:35;7.68;;;3.83;;
5981;SDS011;3018;48.730;9.336;2023-03-13T04:42:02;5.68;;;3.13;;
5981;SDS011;3018;48.730;9.336;2023-03-13T04:44:29;7.15;;;2.83;;
5981;SDS011;3018;48.730;9.336;2023-03-13T04:46:55;6.63;;;2.20;;
5981;SDS011;3018;48.730;9.336;2023-03-13T04:49:22;3.35;;;2.05;;
5981;SDS011;3018;48.730;9.336;2023-03-13T04:51:48;5.43;;;2.00;;
5981;SDS011;3018;48.730;9.336;2023-03-13T04:54:14;3.67;;;1.73;;
5981;SDS011;3018;48.730;9.336;2023-03-13T04:56:41;4.00;;;2.13;;
5981;SDS011;3018;48.730;9.336;2023-03-13T04:59:07;3.40;;;2.10;;
5981;SDS011;3018;48.730;9.336;2023-03-13T05:01:35;4.45;;;2.03;;
5981;SDS011;3018;48.730;9.336;2023-03-13T05:04:01;6.80;;;2.05;;
5981;SDS011;3018;48.730;9.336;2023-03-13T05:06:27;3.75;;;1.80;;
5981;SDS011;3018;48.730;9.336;2023-03-13T05:08:54;4.47;;;2.13;;
5981;SDS011;3018;48.730;9.336;2023-03-13T05:11:20;5.80;;;2.50;;
5981;SDS011;3018;48.730;9.336;2023-03-13T05:13:46;2.95;;;2.30;;
5981;SDS011;3018;48.730;9.336;2023-03-13T05:16:12;5.40;;;2.38;;
5981;SDS011;3018;48.730;9.336;2023-03-13T05:18:40;5.63;;;2.40;;
5981;SDS011;3018;48.730;9.336;2023-03-13T05:21:07;5.82;;;2.25;;
5981;SDS011;3018;48.730;9.336;2023-03-13T05:23:33;1.70;;;1.27;;
5981;SDS011;3018;48.730;9.336;2023-03-13T05:25:59;2.08;;;1.50;;
5981;SDS011;3018;48.730;9.336;2023-03-13T05:28:26;2.97;;;1.40;;
5981;SDS011;3018;48.730;9.336;2023-03-13T05:30:52;4.72;;;1.45;;
5981;SDS011;3018;48.730;9.336;2023-03-13T05:33:18;3.33;;;1.05;;
5981;SDS011;3018;48.730;9.336;2023-03-13T05:35:46;3.95;;;1.48;;
5981;SDS011;3018;48.730;9.336;2023-03-13T05:38:12;3.80;;;1.40;;
5981;SDS011;3018;48.730;9.336;2023-03-13T05:40:39;4.20;;;1.30;;
5981;SDS011;3018;48.730;9.336;2023-03-13T05:43:05;1.38;;;1.20;;
5981;SDS011;3018;48.730;9.336;2023-03-13T05:45:32;1.42;;;1.10;;
5981;SDS011;3018;48.730;9.336;2023-03-13T05:47:58;3.08;;;0.95;;
5981;SDS011;3018;48.730;9.336;2023-03-13T05:50:24;3.13;;;1.30;;
5981;SDS011;3018;48.730;9.336;2023-03-13T05:52:52;2.05;;;1.20;;
5981;SDS011;3018;48.730;9.336;2023-03-13T05:55:18;3.28;;;1.40;;
5981;SDS011;3018;48.730;9.336;2023-03-13T05:57:45;1.90;;;1.33;;
5981;SDS011;3018;48.730;9.336;2023-03-13T06:00:12;2.60;;;2.40;;
5981;SDS011;3018;48.730;9.336;2023-03-13T06:02:38;7.18;;;5.45;;
5981;SDS011;3018;48.730;9.336;2023-03-13T06:05:05;4.70;;;1.50;;
5981;SDS011;3018;48.730;9.336;2023-03-13T06:07:31;5.72;;;1.52;;
5981;SDS011;3018;48.730;9.336;2023-03-13T06:09:59;6.80;;;2.15;;
5981;SDS011;3018;48.730;9.336;2023-03-13T06:12:26;1.70;;;1.45;;
5981;SDS011;3018;48.730;9.336;2023-03-13T06:14:52;3.55;;;1.80;;
5981;SDS011;3018;48.730;9.336;2023-03-13T06:17:18;1.92;;;1.10;;
5981;SDS011;3018;48.730;9.336;2023-03-13T06:19:45;3.40;;;1.23;;
5981;SDS011;3018;48.730;9.336;2023-03-13T06:22:11;1.45;;;1.05;;
5981;SDS011;3018;48.730;9.336;2023-03-13T06:24:38;1.00;;;0.90;;
5981;SDS011;3018;48.730;9.336;2023-03-13T06:27:05;1.52;;;0.75;;
5981;SDS011;3018;48.730;9.336;2023-03-13T06:29:32;2.00;;;1.00;;
5981;SDS011;3018;48.730;9.336;2023-03-13T06:31:58;2.47;;;0.80;;
5981;SDS011;3018;48.730;9.336;2023-03-13T06:34:24;3.45;;;1.17;;
5981;SDS011;3018;48.730;9.336;2023-03-13T06:36:50;0.98;;;0.80;;
5981;SDS011;3018;48.730;9.336;2023-03-13T06:39:17;3.63;;;0.82;;
5981;SDS011;3018;48.730;9.336;2023-03-13T06:41:43;2.90;;;1.02;;
5981;SDS011;3018;48.730;9.336;2023-03-13T06:44:10;1.50;;;1.00;;
5981;SDS011;3018;48.730;9.336;2023-03-13T06:46:37;0.70;;;0.68;;
5981;SDS011;3018;48.730;9.336;2023-03-13T06:49:03;1.40;;;0.80;;
5981;SDS011;3018;48.730;9.336;2023-03-13T06:51:30;9.05;;;1.30;;
5981;SDS011;3018;48.730;9.336;2023-03-13T06:53:56;9.10;;;1.83;;
5981;SDS011;3018;48.730;9.336;2023-03-13T06:56:22;0.80;;;0.80;;
5981;SDS011;3018;48.730;9.336;2023-03-13T06:58:49;0.88;;;0.70;;
5981;SDS011;3018;48.730;9.336;2023-03-13T07:01:17;2.85;;;0.85;;
5981;SDS011;3018;48.730;9.336;2023-03-13T07:03:43;2.20;;;0.80;;
5981;SDS011;3018;48.730;9.336;2023-03-13T07:06:10;1.05;;;0.55;;
5981;SDS011;3018;48.730;9.336;2023-03-13T07:08:37;2.42;;;0.45;;
5981;SDS011;3018;48.730;9.336;2023-03-13T07:11:04;2.08;;;0.55;;
5981;SDS011;3018;48.730;9.336;2023-03-13T07:13:31;0.47;;;0.47;;
5981;SDS011;3018;48.730;9.336;2023-03-13T07:15:58;0.95;;;0.30;;
5981;SDS011;3018;48.730;9.336;2023-03-13T07:18:26;0.45;;;0.43;;
5981;SDS011;3018;48.730;9.336;2023-03-13T07:20:52;0.57;;;0.40;;
5981;SDS011;3018;48.730;9.336;2023-03-13T07:23:19;1.05;;;0.50;;
5981;SDS011;3018;48.730;9.336;2023-03-13T07:25:51;1.77;;;0.63;;
5981;SDS011;3018;48.730;9.336;2023-03-13T07:28:17;0.40;;;0.40;;
5981;SDS011;3018;48.730;9.336;2023-03-13T07:30:43;0.75;;;0.40;;
5981;SDS011;3018;48.730;9.336;2023-03-13T07:33:09;0.77;;;0.77;;
5981;SDS011;3018;48.730;9.336;2023-03-13T07:35:37;0.40;;;0.40;;
5981;SDS011;3018;48.730;9.336;2023-03-13T07:38:04;1.88;;;0.38;;
5981;SDS011;3018;48.730;9.336;2023-03-13T07:40:30;0.30;;;0.30;;
5981;SDS011;3018;48.730;9.336;2023-03-13T07:42:56;0.38;;;0.38;;
5981;SDS011;3018;48.730;9.336;2023-03-13T07:45:22;0.52;;;0.35;;
5981;SDS011;3018;48.730;9.336;2023-03-13T07:47:49;0.65;;;0.60;;
5981;SDS011;3018;48.730;9.336;2023-03-13T07:50:15;1.10;;;0.40;;
5981;SDS011;3018;48.730;9.336;2023-03-13T07:52:43;0.28;;;0.28;;
5981;SDS011;3018;48.730;9.336;2023-03-13T07:55:09;0.85;;;0.57;;
5981;SDS011;3018;48.730;9.336;2023-03-13T07:57:35;0.50;;;0.43;;
5981;SDS011;3018;48.730;9.336;2023-03-13T08:00:02;0.50;;;0.30;;
5981;SDS011;3018;48.730;9.336;2023-03-13T08:02:30;1.95;;;0.50;;
5981;SDS011;3018;48.730;9.336;2023-03-13T08:04:56;1.27;;;0.45;;
5981;SDS011;3018;48.730;9.336;2023-03-13T08:07:22;1.13;;;0.40;;
5981;SDS011;3018;48.730;9.336;2023-03-13T08:09:50;0.40;;;0.40;;
5981;SDS011;3018;48.730;9.336;2023-03-13T08:12:16;0.45;;;0.45;;
5981;SDS011;3018;48.730;9.336;2023-03-13T08:14:42;0.50;;;0.50;;
5981;SDS011;3018;48.730;9.336;2023-03-13T08:17:09;0.65;;;0.65;;
5981;SDS011;3018;48.730;9.336;2023-03-13T08:19:35;0.45;;;0.45;;
5981;SDS011;3018;48.730;9.336;2023-03-13T08:22:03;1.60;;;0.50;;
5981;SDS011;3018;48.730;9.336;2023-03-13T08:24:29;0.45;;;0.45;;
5981;SDS011;3018;48.730;9.336;2023-03-13T08:26:57;1.33;;;1.05;;
5981;SDS011;3018;48.730;9.336;2023-03-13T08:29:23;2.00;;;0.82;;
5981;SDS011;3018;48.730;9.336;2023-03-13T08:31:49;0.45;;;0.45;;
5981;SDS011;3018;48.730;9.336;2023-03-13T08:34:17;2.20;;;0.40;;
5981;SDS011;3018;48.730;9.336;2023-03-13T08:36:43;1.33;;;0.57;;
5981;SDS011;3018;48.730;9.336;2023-03-13T08:39:10;1.10;;;0.50;;
5981;SDS011;3018;48.730;9.336;2023-03-13T08:41:37;0.52;;;0.52;;
5981;SDS011;3018;48.730;9.336;2023-03-13T08:44:06;0.60;;;0.60;;
5981;SDS011;3018;48.730;9.336;2023-03-13T08:46:34;1.00;;;0.60;;
5981;SDS011;3018;48.730;9.336;2023-03-13T08:49:00;3.40;;;0.73;;
5981;SDS011;3018;48.730;9.336;2023-03-13T08:51:28;0.60;;;0.60;;
5981;SDS011;3018;48.730;9.336;2023-03-13T08:53:54;0.75;;;0.60;;
5981;SDS011;3018;48.730;9.336;2023-03-13T08:56:21;0.40;;;0.40;;
5981;SDS011;3018;48.730;9.336;2023-03-13T08:58:48;1.75;;;0.50;;
5981;SDS011;3018;48.730;9.336;2023-03-13T09:01:16;1.30;;;0.70;;
5981;SDS011;3018;48.730;9.336;2023-03-13T09:03:43;1.50;;;0.47;;
5981;SDS011;3018;48.730;9.336;2023-03-13T09:06:09;1.85;;;0.50;;
5981;SDS011;3018;48.730;9.336;2023-03-13T09:08:36;0.90;;;0.57;;
5981;SDS011;3018;48.730;9.336;2023-03-13T09:11:04;0.90;;;0.55;;
5981;SDS011;3018;48.730;9.336;2023-03-13T09:13:30;1.70;;;0.70;;
5981;SDS011;3018;48.730;9.336;2023-03-13T09:15:58;0.47;;;0.40;;
5981;SDS011;3018;48.730;9.336;2023-03-13T09:18:26;0.73;;;0.40;;
5981;SDS011;3018;48.730;9.336;2023-03-13T09:20:52;1.60;;;0.65;;
5981;SDS011;3018;48.730;9.336;2023-03-13T09:23:19;1.48;;;0.60;;
5981;SDS011;3018;48.730;9.336;2023-03-13T09:25:45;2.72;;;0.50;;
5981;SDS011;3018;48.730;9.336;2023-03-13T09:28:11;1.25;;;0.82;;
5981;SDS011;3018;48.730;9.336;2023-03-13T09:30:38;0.60;;;0.60;;
5981;SDS011;3018;48.730;9.336;2023-03-13T09:33:04;0.45;;;0.45;;
5981;SDS011;3018;48.730;9.336;2023-03-13T09:35:31;0.60;;;0.60;;
5981;SDS011;3018;48.730;9.336;2023-03-13T09:37:58;0.45;;;0.40;;
5981;SDS011;3018;48.730;9.336;2023-03-13T09:40:24;2.90;;;0.63;;
5981;SDS011;3018;48.730;9.336;2023-03-13T09:42:52;0.80;;;0.47;;
5981;SDS011;3018;48.730;9.336;2023-03-13T09:45:20;2.47;;;0.50;;
5981;SDS011;3018;48.730;9.336;2023-03-13T09:47:49;1.05;;;0.45;;
5981;SDS011;3018;48.730;9.336;2023-03-13T09:50:17;0.70;;;0.50;;
5981;SDS011;3018;48.730;9.336;2023-03-13T09:52:46;2.40;;;0.60;;
5981;SDS011;3018;48.730;9.336;2023-03-13T09:55:16;2.60;;;0.68;;
5981;SDS011;3018;48.730;9.336;2023-03-13T09:57:47;2.53;;;0.70;;
5981;SDS011;3018;48.730;9.336;2023-03-13T10:00:15;0.70;;;0.70;;
5981;SDS011;3018;48.730;9.336;2023-03-13T10:02:44;4.72;;;0.60;;
5981;SDS011;3018;48.730;9.336;2023-03-13T10:05:13;1.88;;;0.80;;
5981;SDS011;3018;48.730;9.336;2023-03-13T10:07:40;1.15;;;0.80;;
5981;SDS011;3018;48.730;9.336;2023-03-13T10:10:11;2.33;;;0.82;;
5981;SDS011;3018;48.730;9.336;2023-03-13T10:12:41;3.72;;;0.70;;
5981;SDS011;3018;48.730;9.336;2023-03-13T10:15:30;0.70;;;0.70;;
5981;SDS011;3018;48.730;9.336;2023-03-13T10:17:57;2.88;;;1.05;;
5981;SDS011;3018;48.730;9.336;2023-03-13T10:20:25;1.55;;;0.80;;
5981;SDS011;3018;48.730;9.336;2023-03-13T10:22:53;2.78;;;0.80;;
5981;SDS011;3018;48.730;9.336;2023-03-13T10:25:26;3.20;;;0.80;;
5981;SDS011;3018;48.730;9.336;2023-03-13T10:27:53;1.38;;;0.98;;
5981;SDS011;3018;48.730;9.336;2023-03-13T10:30:21;2.25;;;0.90;;
5981;SDS011;3018;48.730;9.336;2023-03-13T10:32:48;0.93;;;0.80;;
5981;SDS011;3018;48.730;9.336;2023-03-13T10:35:19;1.58;;;0.80;;
5981;SDS011;3018;48.730;9.336;2023-03-13T10:37:45;2.72;;;1.00;;
5981;SDS011;3018;48.730;9.336;2023-03-13T10:40:13;2.38;;;1.00;;
5981;SDS011;3018;48.730;9.336;2023-03-13T10:42:41;1.63;;;0.70;;
5981;SDS011;3018;48.730;9.336;2023-03-13T10:45:13;5.70;;;1.02;;
5981;SDS011;3018;48.730;9.336;2023-03-13T10:47:39;4.10;;;0.88;;
5981;SDS011;3018;48.730;9.336;2023-03-13T10:50:06;6.03;;;1.10;;
5981;SDS011;3018;48.730;9.336;2023-03-13T10:52:34;5.85;;;0.80;;
5981;SDS011;3018;48.730;9.336;2023-03-13T10:55:01;3.25;;;0.82;;
5981;SDS011;3018;48.730;9.336;2023-03-13T10:57:28;3.60;;;1.10;;
5981;SDS011;3018;48.730;9.336;2023-03-13T10:59:56;0.73;;;0.65;;
5981;SDS011;3018;48.730;9.336;2023-03-13T11:02:24;2.33;;;1.00;;
5981;SDS011;3018;48.730;9.336;2023-03-13T11:04:51;1.48;;;0.70;;
5981;SDS011;3018;48.730;9.336;2023-03-13T11:07:20;1.25;;;0.70;;
5981;SDS011;3018;48.730;9.336;2023-03-13T11:09:53;2.67;;;0.95;;
5981;SDS011;3018;48.730;9.336;2023-03-13T11:12:22;3.03;;;1.00;;
5981;SDS011;3018;48.730;9.336;2023-03-13T11:14:48;1.10;;;0.98;;
5981;SDS011;3018;48.730;9.336;2023-03-13T11:17:23;1.55;;;0.80;;
5981;SDS011;3018;48.730;9.336;2023-03-13T11:19:57;3.63;;;1.02;;
5981;SDS011;3018;48.730;9.336;2023-03-13T11:22:34;4.63;;;0.70;;
5981;SDS011;3018;48.730;9.336;2023-03-13T11:25:10;2.60;;;0.98;;
5981;SDS011;3018;48.730;9.336;2023-03-13T11:27:41;1.75;;;0.80;;
5981;SDS011;3018;48.730;9.336;2023-03-13T11:30:14;1.55;;;0.80;;
5981;SDS011;3018;48.730;9.336;2023-03-13T11:32:43;1.58;;;0.82;;
5981;SDS011;3018;48.730;9.336;2023-03-13T11:35:15;4.90;;;1.10;;
5981;SDS011;3018;48.730;9.336;2023-03-13T11:37:43;1.42;;;0.75;;
5981;SDS011;3018;48.730;9.336;2023-03-13T11:40:13;4.03;;;1.10;;
5981;SDS011;3018;48.730;9.336;2023-03-13T11:42:48;2.55;;;0.80;;
5981;SDS011;3018;48.730;9.336;2023-03-13T11:45:25;3.55;;;1.17;;
5981;SDS011;3018;48.730;9.336;2023-03-13T11:47:56;1.45;;;0.98;;
5981;SDS011;3018;48.730;9.336;2023-03-13T11:50:25;2.90;;;0.77;;
5981;SDS011;3018;48.730;9.336;2023-03-13T11:52:57;2.40;;;0.80;;
5981;SDS011;3018;48.730;9.336;2023-03-13T11:55:33;3.28;;;0.60;;
5981;SDS011;3018;48.730;9.336;2023-03-13T11:58:06;0.63;;;0.63;;
5981;SDS011;3018;48.730;9.336;2023-03-13T12:00:35;0.95;;;0.75;;
5981;SDS011;3018;48.730;9.336;2023-03-13T12:03:05;1.80;;;0.80;;
5981;SDS011;3018;48.730;9.336;2023-03-13T12:05:37;1.50;;;0.75;;
5981;SDS011;3018;48.730;9.336;2023-03-13T12:08:06;2.28;;;0.60;;
5981;SDS011;3018;48.730;9.336;2023-03-13T12:10:36;0.68;;;0.68;;
5981;SDS011;3018;48.730;9.336;2023-03-13T12:13:04;0.73;;;0.73;;
5981;SDS011;3018;48.730;9.336;2023-03-13T12:15:33;0.88;;;0.68;;
5981;SDS011;3018;48.730;9.336;2023-03-13T12:18:04;1.25;;;0.77;;
5981;SDS011;3018;48.730;9.336;2023-03-13T12:20:36;1.73;;;0.70;;
5981;SDS011;3018;48.730;9.336;2023-03-13T12:23:10;3.90;;;0.80;;
5981;SDS011;3018;48.730;9.336;2023-03-13T12:25:42;3.85;;;0.50;;
5981;SDS011;3018;48.730;9.336;2023-03-13T12:28:14;0.85;;;0.68;;
5981;SDS011;3018;48.730;9.336;2023-03-13T12:30:47;0.75;;;0.75;;
5981;SDS011;3018;48.730;9.336;2023-03-13T12:33:18;2.17;;;0.85;;
5981;SDS011;3018;48.730;9.336;2023-03-13T12:35:51;1.77;;;0.77;;
5981;SDS011;3018;48.730;9.336;2023-03-13T12:38:20;1.08;;;0.50;;
5981;SDS011;3018;48.730;9.336;2023-03-13T12:40:48;5.55;;;0.60;;
5981;SDS011;3018;48.730;9.336;2023-03-13T12:43:16;0.88;;;0.88;;
5981;SDS011;3018;48.730;9.336;2023-03-13T12:45:45;1.15;;;1.15;;
5981;SDS011;3018;48.730;9.336;2023-03-13T12:51:01;5.63;;;0.70;;
5981;SDS011;3018;48.730;9.336;2023-03-13T12:53:42;3.05;;;1.00;;
5981;SDS011;3018;48.730;9.336;2023-03-13T12:56:20;1.73;;;0.80;;
5981;SDS011;3018;48.730;9.336;2023-03-13T12:58:53;1.55;;;0.73;;
5981;SDS011;3018;48.730;9.336;2023-03-13T13:01:25;2.35;;;0.60;;
5981;SDS011;3018;48.730;9.336;2023-03-13T13:03:52;2.28;;;0.70;;
5981;SDS011;3018;48.730;9.336;2023-03-13T13:06:21;1.50;;;0.70;;
5981;SDS011;3018;48.730;9.336;2023-03-13T13:09:00;1.20;;;0.73;;
5981;SDS011;3018;48.730;9.336;2023-03-13T13:11:34;3.00;;;0.90;;
5981;SDS011;3018;48.730;9.336;2023-03-13T13:14:04;2.65;;;0.80;;
5981;SDS011;3018;48.730;9.336;2023-03-13T13:16:51;2.03;;;0.90;;
5981;SDS011;3018;48.730;9.336;2023-03-13T13:24:49;1.70;;;0.60;;
5981;SDS011;3018;48.730;9.336;2023-03-13T13:30:27;1.02;;;1.00;;
5981;SDS011;3018;48.730;9.336;2023-03-13T13:32:55;3.90;;;0.85;;
5981;SDS011;3018;48.730;9.336;2023-03-13T13:35:25;2.00;;;0.90;;
5981;SDS011;3018;48.730;9.336;2023-03-13T13:37:52;3.08;;;0.90;;
5981;SDS011;3018;48.730;9.336;2023-03-13T13:40:40;3.80;;;0.90;;
5981;SDS011;3018;48.730;9.336;2023-03-13T13:43:22;0.90;;;0.90;;
5981;SDS011;3018;48.730;9.336;2023-03-13T13:45:54;2.30;;;0.90;;
5981;SDS011;3018;48.730;9.336;2023-03-13T13:48:25;2.05;;;0.77;;
5981;SDS011;3018;48.730;9.336;2023-03-13T13:53:56;4.43;;;0.75;;
5981;SDS011;3018;48.730;9.336;2023-03-13T13:56:29;2.90;;;1.15;;
5981;SDS011;3018;48.730;9.336;2023-03-13T13:58:59;0.90;;;0.80;;
5981;SDS011;3018;48.730;9.336;2023-03-13T14:01:26;4.18;;;0.90;;
5981;SDS011;3018;48.730;9.336;2023-03-13T14:03:53;2.50;;;0.70;;
5981;SDS011;3018;48.730;9.336;2023-03-13T14:06:24;3.17;;;0.90;;
5981;SDS011;3018;48.730;9.336;2023-03-13T14:08:53;2.85;;;0.60;;
5981;SDS011;3018;48.730;9.336;2023-03-13T14:11:22;5.65;;;0.88;;
5981;SDS011;3018;48.730;9.336;2023-03-13T14:14:09;2.10;;;0.70;;
5981;SDS011;3018;48.730;9.336;2023-03-13T14:16:36;2.35;;;0.85;;
5981;SDS011;3018;48.730;9.336;2023-03-13T14:19:02;0.95;;;0.85;;
5981;SDS011;3018;48.730;9.336;2023-03-13T14:21:29;2.33;;;0.77;;
5981;SDS011;3018;48.730;9.336;2023-03-13T14:23:57;1.27;;;0.77;;
5981;SDS011;3018;48.730;9.336;2023-03-13T14:26:24;3.10;;;0.77;;
5981;SDS011;3018;48.730;9.336;2023-03-13T14:28:51;5.50;;;0.75;;
5981;SDS011;3018;48.730;9.336;2023-03-13T14:31:22;6.22;;;0.90;;
5981;SDS011;3018;48.730;9.336;2023-03-13T14:33:49;2.15;;;0.70;;
5981;SDS011;3018;48.730;9.336;2023-03-13T14:36:15;2.40;;;0.80;;
5981;SDS011;3018;48.730;9.336;2023-03-13T14:38:49;1.17;;;0.80;;
5981;SDS011;3018;48.730;9.336;2023-03-13T14:41:21;5.50;;;0.90;;
5981;SDS011;3018;48.730;9.336;2023-03-13T14:43:47;2.88;;;0.77;;
5981;SDS011;3018;48.730;9.336;2023-03-13T14:46:14;1.02;;;0.70;;
5981;SDS011;3018;48.730;9.336;2023-03-13T14:48:46;2.35;;;0.70;;
5981;SDS011;3018;48.730;9.336;2023-03-13T14:51:15;1.25;;;0.75;;
5981;SDS011;3018;48.730;9.336;2023-03-13T14:53:52;4.28;;;0.90;;
5981;SDS011;3018;48.730;9.336;2023-03-13T14:56:19;4.88;;;0.95;;
5981;SDS011;3018;48.730;9.336;2023-03-13T14:58:45;1.38;;;0.70;;
5981;SDS011;3018;48.730;9.336;2023-03-13T15:01:13;1.65;;;0.60;;
5981;SDS011;3018;48.730;9.336;2023-03-13T15:03:42;5.47;;;1.00;;
5981;SDS011;3018;48.730;9.336;2023-03-13T15:06:17;2.90;;;0.80;;
5981;SDS011;3018;48.730;9.336;2023-03-13T15:08:44;1.77;;;0.70;;
5981;SDS011;3018;48.730;9.336;2023-03-13T15:11:24;3.65;;;0.70;;
5981;SDS011;3018;48.730;9.336;2023-03-13T15:13:50;0.60;;;0.50;;
5981;SDS011;3018;48.730;9.336;2023-03-13T15:16:17;5.30;;;1.05;;
5981;SDS011;3018;48.730;9.336;2023-03-13T15:18:46;1.77;;;0.88;;
5981;SDS011;3018;48.730;9.336;2023-03-13T15:21:19;3.17;;;0.70;;
5981;SDS011;3018;48.730;9.336;2023-03-13T15:23:47;1.95;;;0.88;;
5981;SDS011;3018;48.730;9.336;2023-03-13T15:26:14;1.95;;;0.80;;
5981;SDS011;3018;48.730;9.336;2023-03-13T15:28:41;1.70;;;0.50;;
5981;SDS011;3018;48.730;9.336;2023-03-13T15:31:08;2.92;;;0.80;;
5981;SDS011;3018;48.730;9.336;2023-03-13T15:33:35;2.40;;;0.80;;
5981;SDS011;3018;48.730;9.336;2023-03-13T15:36:01;1.10;;;0.60;;